createdAt,value
2018-08-04T00:03:29.580Z,101594.53
2018-08-04T00:06:54.125Z,101594.07
2018-08-04T00:10:20.832Z,101601.25
2018-08-04T00:13:45.372Z,101595.61
2018-08-04T00:17:09.780Z,101599.39
2018-08-04T00:20:34.234Z,101601.19
2018-08-04T00:23:58.873Z,101597.62
2018-08-04T00:27:23.374Z,101599.16
2018-08-04T00:30:47.829Z,101594.45
2018-08-04T00:34:12.305Z,101597.52
2018-08-04T00:37:36.551Z,101610.05
2018-08-04T00:41:00.974Z,101610.78
2018-08-04T00:44:25.439Z,101609.67
2018-08-04T00:47:49.857Z,101603.97
2018-08-04T00:51:14.263Z,101604.98
2018-08-04T00:54:38.697Z,101610.17
2018-08-04T00:58:03.143Z,101606.27
2018-08-04T01:01:27.705Z,101605.06
2018-08-04T01:04:52.158Z,101609.20
2018-08-04T01:08:16.639Z,101602.27
2018-08-04T01:11:41.096Z,101609.33
2018-08-04T01:15:05.627Z,101602.48
2018-08-04T01:18:30.088Z,101597.72
2018-08-04T01:21:54.551Z,101597.19
2018-08-04T01:25:18.984Z,101597.00
2018-08-04T01:28:43.552Z,101599.72
2018-08-04T01:32:07.969Z,101595.41
2018-08-04T01:35:32.385Z,101602.84
2018-08-04T01:38:56.857Z,101597.59
2018-08-04T01:42:21.293Z,101596.55
2018-08-04T01:45:45.747Z,101597.03
2018-08-04T01:49:10.178Z,101594.12
2018-08-04T01:52:34.559Z,101593.27
2018-08-04T01:55:58.980Z,101595.78
2018-08-04T01:59:23.398Z,101583.39
2018-08-04T02:02:47.793Z,101582.69
2018-08-04T02:06:12.443Z,101573.41
2018-08-04T02:09:36.832Z,101585.12
2018-08-04T02:13:01.326Z,101579.97
2018-08-04T02:16:25.757Z,101586.23
2018-08-04T02:19:50.200Z,101580.25
2018-08-04T02:23:14.636Z,101572.08
2018-08-04T02:26:39.040Z,101577.78
2018-08-04T02:30:03.709Z,101575.35
2018-08-04T02:33:28.164Z,101569.51
2018-08-04T02:36:52.612Z,101564.88
2018-08-04T02:40:17.165Z,101559.70
2018-08-04T02:43:41.743Z,101563.83
2018-08-04T02:47:06.164Z,101561.09
2018-08-04T02:50:31.084Z,101554.16
2018-08-04T02:53:55.801Z,101549.38
2018-08-04T02:57:20.492Z,101549.38
2018-08-04T03:00:45.052Z,101555.91
2018-08-04T03:04:09.959Z,101549.58
2018-08-04T03:07:34.492Z,101561.80
2018-08-04T03:10:59.227Z,101565.59
2018-08-04T03:14:23.707Z,101558.55
2018-08-04T03:17:48.402Z,101557.17
2018-08-04T03:21:12.843Z,101558.54
2018-08-04T03:24:37.515Z,101561.78
2018-08-04T03:28:02.297Z,101561.28
2018-08-04T03:31:26.857Z,101562.14
2018-08-04T03:34:51.394Z,101563.70
2018-08-04T03:38:15.624Z,101564.06
2018-08-04T03:41:41.003Z,101564.05
2018-08-04T03:45:05.607Z,101569.91
2018-08-04T03:48:30.211Z,101569.91
2018-08-04T03:51:54.701Z,101571.81
2018-08-04T03:55:19.369Z,101570.06
2018-08-04T03:58:44.115Z,101569.53
2018-08-04T04:02:08.536Z,101565.91
2018-08-04T04:05:33.488Z,101570.73
2018-08-04T04:08:57.928Z,101559.71
2018-08-04T04:12:22.362Z,101570.57
2018-08-04T04:15:46.804Z,101572.48
2018-08-04T04:19:11.195Z,101577.14
2018-08-04T04:22:35.626Z,101582.14
2018-08-04T04:26:00.026Z,101593.33
2018-08-04T04:29:25.058Z,101587.47
2018-08-04T04:32:49.491Z,101592.09
2018-08-04T04:36:13.910Z,101596.39
2018-08-04T04:39:38.320Z,101595.72
2018-08-04T04:43:02.950Z,101601.24
2018-08-04T04:46:27.387Z,101611.92
2018-08-04T04:49:51.854Z,101606.05
2018-08-04T04:53:16.286Z,101609.52
2018-08-04T04:56:40.708Z,101603.27
2018-08-04T05:00:05.587Z,101597.06
2018-08-04T05:03:29.992Z,101586.37
2018-08-04T05:06:54.576Z,101595.64
2018-08-04T05:10:18.980Z,101598.09
2018-08-04T05:13:43.371Z,101602.64
2018-08-04T05:17:07.915Z,101606.38
2018-08-04T05:20:32.835Z,101608.66
2018-08-04T05:23:58.265Z,101617.09
2018-08-04T05:27:22.709Z,101613.80
2018-08-04T05:30:46.911Z,101619.30
2018-08-04T05:34:11.392Z,101622.73
2018-08-04T05:37:35.851Z,101617.45
2018-08-04T05:41:00.276Z,101620.08
2018-08-04T05:44:24.741Z,101616.94
2018-08-04T05:47:49.166Z,101620.22
2018-08-04T05:51:13.579Z,101620.31
2018-08-04T05:54:37.723Z,101617.66
2018-08-04T05:58:02.261Z,101618.55
2018-08-04T06:01:26.654Z,101621.95
2018-08-04T06:04:51.255Z,101633.06
2018-08-04T06:08:15.713Z,101627.20
2018-08-04T06:11:40.935Z,101627.94
2018-08-04T06:15:05.776Z,101635.98
2018-08-04T06:18:30.202Z,101646.45
2018-08-04T06:21:54.703Z,101643.63
2018-08-04T06:25:19.097Z,101644.97
2018-08-04T06:28:43.903Z,101648.60
2018-08-04T06:32:08.759Z,101652.83
2018-08-04T06:35:33.192Z,101654.34
2018-08-04T06:38:57.614Z,101663.36
2018-08-04T06:42:22.697Z,101666.61
2018-08-04T06:45:47.227Z,101671.95
2018-08-04T06:49:11.711Z,101660.48
2018-08-04T06:52:36.320Z,101651.33
2018-08-04T06:56:00.762Z,101650.03
2018-08-04T06:59:25.237Z,101654.82
2018-08-04T07:02:49.717Z,101650.73
2018-08-04T07:06:14.219Z,101651.03
2018-08-04T07:09:38.632Z,101655.20
2018-08-04T07:13:03.114Z,101649.81
2018-08-04T07:16:27.551Z,101648.87
2018-08-04T07:19:52.058Z,101653.59
2018-08-04T07:23:16.582Z,101648.87
2018-08-04T07:26:41.000Z,101648.06
2018-08-04T07:30:10.734Z,101660.13
2018-08-04T07:33:35.191Z,101665.22
2018-08-04T07:36:59.643Z,101660.83
2018-08-04T07:40:24.237Z,101668.72
2018-08-04T07:43:48.671Z,101673.02
2018-08-04T07:47:13.186Z,101678.98
2018-08-04T07:50:37.668Z,101677.69
2018-08-04T07:54:02.140Z,101674.69
2018-08-04T07:57:26.604Z,101673.53
2018-08-04T08:00:51.024Z,101673.25
2018-08-04T08:04:15.447Z,101676.83
2018-08-04T08:07:39.926Z,101678.67
2018-08-04T08:11:04.396Z,101675.38
2018-08-04T08:14:28.844Z,101671.44
2018-08-04T08:17:53.287Z,101674.37
2018-08-04T08:21:17.733Z,101683.42
2018-08-04T08:24:42.226Z,101680.19
2018-08-04T08:28:06.928Z,101678.66
2018-08-04T08:31:31.336Z,101681.26
2018-08-04T08:34:55.837Z,101680.81
2018-08-04T08:38:20.285Z,101679.27
2018-08-04T08:41:44.724Z,101677.76
2018-08-04T08:45:10.770Z,101678.52
2018-08-04T08:48:35.190Z,101684.06
2018-08-04T08:51:59.605Z,101683.38
2018-08-04T08:55:24.319Z,101690.36
2018-08-04T08:58:48.821Z,101692.58
2018-08-04T09:02:13.402Z,101697.42
2018-08-04T09:05:37.805Z,101700.42
2018-08-04T09:09:02.218Z,101698.89
2018-08-04T09:12:26.652Z,101690.71
2018-08-04T09:15:51.077Z,101688.96
2018-08-04T09:19:15.388Z,101692.58
2018-08-04T09:22:39.950Z,101687.89
2018-08-04T09:26:04.418Z,101691.77
2018-08-04T09:29:28.876Z,101690.07
2018-08-04T09:32:53.352Z,101692.09
2018-08-04T09:36:17.774Z,101691.89
2018-08-04T09:39:42.222Z,101692.88
2018-08-04T09:43:06.847Z,101698.51
2018-08-04T09:46:31.300Z,101701.23
2018-08-04T09:49:55.729Z,101703.67
2018-08-04T09:53:20.213Z,101702.58
2018-08-04T09:56:44.662Z,101700.74
2018-08-04T10:00:18.095Z,101704.43
2018-08-04T10:03:42.633Z,101703.10
2018-08-04T10:07:07.808Z,101702.19
2018-08-04T10:10:32.245Z,101698.53
2018-08-04T10:13:56.716Z,101702.23
2018-08-04T10:17:21.173Z,101695.13
2018-08-04T10:20:45.588Z,101697.70
2018-08-04T10:24:10.029Z,101701.78
2018-08-04T10:27:34.440Z,101687.64
2018-08-04T10:30:58.883Z,101689.42
2018-08-04T10:34:23.403Z,101688.44
2018-08-04T10:37:47.842Z,101688.07
2018-08-04T10:41:12.289Z,101688.17
2018-08-04T10:44:36.729Z,101684.47
2018-08-04T10:48:01.267Z,101681.00
2018-08-04T10:51:25.708Z,101680.02
2018-08-04T10:54:50.261Z,101675.85
2018-08-04T10:58:14.737Z,101677.17
2018-08-04T11:01:39.155Z,101676.22
2018-08-04T11:05:03.713Z,101673.71
2018-08-04T11:08:28.121Z,101666.77
2018-08-04T11:11:52.587Z,101673.00
2018-08-04T11:15:17.055Z,101671.25
2018-08-04T11:18:41.520Z,101667.20
2018-08-04T11:22:06.130Z,101667.98
2018-08-04T11:25:30.585Z,101665.30
2018-08-04T11:28:55.043Z,101672.67
2018-08-04T11:32:19.479Z,101673.52
2018-08-04T11:35:44.034Z,101667.88
2018-08-04T11:39:10.788Z,101666.00
2018-08-04T11:42:35.223Z,101671.13
2018-08-04T11:45:59.670Z,101667.31
2018-08-04T11:49:24.154Z,101666.38
2018-08-04T11:52:48.612Z,101672.97
2018-08-04T11:56:13.066Z,101660.23
2018-08-04T11:59:37.792Z,101653.42
2018-08-04T12:03:02.225Z,101661.07
2018-08-04T12:06:26.757Z,101658.04
2018-08-04T12:09:51.193Z,101652.97
2018-08-04T12:13:15.786Z,101647.60
2018-08-04T12:16:40.288Z,101629.77
2018-08-04T12:20:05.137Z,101637.56
2018-08-04T12:23:29.536Z,101632.34
2018-08-04T12:26:53.984Z,101642.83
2018-08-04T12:30:18.474Z,101641.78
2018-08-04T12:33:42.918Z,101629.39
2018-08-04T12:37:07.405Z,101638.59
2018-08-04T12:40:31.844Z,101625.44
2018-08-04T12:43:56.276Z,101630.11
2018-08-04T12:47:20.705Z,101625.98
2018-08-04T12:50:45.160Z,101626.91
2018-08-04T12:54:10.056Z,101619.23
2018-08-04T12:57:34.856Z,101619.89
2018-08-04T13:00:59.307Z,101621.40
2018-08-04T13:04:23.730Z,101619.39
2018-08-04T13:07:48.205Z,101626.52
2018-08-04T13:11:12.649Z,101633.62
2018-08-04T13:14:37.145Z,101621.51
2018-08-04T13:18:01.565Z,101614.20
2018-08-04T13:21:25.966Z,101612.52
2018-08-04T13:24:50.424Z,101614.85
2018-08-04T13:28:14.865Z,101602.91
2018-08-04T13:31:39.334Z,101608.12
2018-08-04T13:35:03.754Z,101596.44
2018-08-04T13:38:28.217Z,101606.74
2018-08-04T13:41:53.370Z,101603.14
2018-08-04T13:45:17.829Z,101600.64
2018-08-04T13:48:42.239Z,101602.87
2018-08-04T13:52:06.652Z,101592.13
2018-08-04T13:55:31.084Z,101596.64
2018-08-04T13:58:55.530Z,101596.33
2018-08-04T14:02:19.991Z,101598.64
2018-08-04T14:05:44.430Z,101596.92
2018-08-04T14:09:10.700Z,101595.75
2018-08-04T14:12:35.276Z,101591.33
2018-08-04T14:15:59.711Z,101590.86
2018-08-04T14:19:24.122Z,101597.39
2018-08-04T14:22:48.554Z,101596.33
2018-08-04T14:26:13.015Z,101592.58
2018-08-04T14:29:37.452Z,101590.15
2018-08-04T14:33:01.895Z,101589.97
2018-08-04T14:36:26.355Z,101578.43
2018-08-04T14:39:50.754Z,101582.31
2018-08-04T14:43:15.183Z,101572.86
2018-08-04T14:46:39.624Z,101581.64
2018-08-04T14:50:04.052Z,101574.59
2018-08-04T14:53:28.506Z,101566.27
2018-08-04T14:56:52.893Z,101567.67
2018-08-04T15:00:17.544Z,101569.75
2018-08-04T15:03:41.965Z,101572.66
2018-08-04T15:07:06.600Z,101567.08
2018-08-04T15:10:31.036Z,101565.80
2018-08-04T15:13:55.468Z,101566.07
2018-08-04T15:17:19.938Z,101565.13
2018-08-04T15:20:44.459Z,101562.71
2018-08-04T15:24:08.938Z,101559.39
2018-08-04T15:27:34.288Z,101556.81
2018-08-04T15:30:59.256Z,101558.47
2018-08-04T15:34:23.690Z,101561.03
2018-08-04T15:37:48.138Z,101563.06
2018-08-04T15:41:12.581Z,101563.47
2018-08-04T15:44:37.470Z,101561.46
2018-08-04T15:48:02.245Z,101565.93
2018-08-04T15:51:26.664Z,101562.84
2018-08-04T15:54:51.095Z,101557.78
2018-08-04T15:58:15.534Z,101567.30
2018-08-04T16:01:39.941Z,101559.59
2018-08-04T16:05:04.392Z,101553.92
2018-08-04T16:08:29.359Z,101556.94
2018-08-04T16:11:53.851Z,101559.71
2018-08-04T16:15:18.269Z,101555.14
2018-08-04T16:18:42.710Z,101554.11
2018-08-04T16:22:07.650Z,101558.44
2018-08-04T16:25:32.088Z,101562.73
2018-08-04T16:28:56.572Z,101558.13
2018-08-04T16:32:21.493Z,101558.42
2018-08-04T16:35:46.039Z,101555.26
2018-08-04T16:39:11.126Z,101561.00
2018-08-04T16:42:35.962Z,101559.84
2018-08-04T16:46:00.423Z,101559.75
2018-08-04T16:49:25.378Z,101569.73
2018-08-04T16:52:50.385Z,101571.97
2018-08-04T16:56:15.571Z,101568.55
2018-08-04T16:59:40.428Z,101575.58
2018-08-04T17:03:05.275Z,101583.93
2018-08-04T17:06:32.155Z,101581.02
2018-08-04T17:09:56.584Z,101585.30
2018-08-04T17:13:21.006Z,101584.30
2018-08-04T17:16:45.505Z,101584.91
2018-08-04T17:20:10.256Z,101591.23
2018-08-04T17:23:34.667Z,101584.66
2018-08-04T17:26:59.082Z,101593.19
2018-08-04T17:30:23.513Z,101600.25
2018-08-04T17:33:47.936Z,101589.34
2018-08-04T17:37:12.398Z,101606.23
2018-08-04T17:40:36.906Z,101607.38
2018-08-04T17:44:01.332Z,101611.56
2018-08-04T17:47:25.891Z,101615.97
2018-08-04T17:50:50.298Z,101623.13
2018-08-04T17:54:14.749Z,101622.75
2018-08-04T17:57:39.309Z,101627.02
2018-08-04T18:01:04.037Z,101628.41
2018-08-04T18:04:28.589Z,101632.98
2018-08-04T18:07:53.247Z,101638.66
2018-08-04T18:11:17.832Z,101639.29
2018-08-04T18:14:42.466Z,101646.38
2018-08-04T18:18:07.342Z,101652.45
2018-08-04T18:21:32.167Z,101653.55
2018-08-04T18:24:56.691Z,101646.52
2018-08-04T18:28:21.612Z,101654.45
2018-08-04T18:31:46.179Z,101656.83
2018-08-04T18:35:10.829Z,101660.83
2018-08-04T18:38:35.396Z,101667.81
2018-08-04T18:41:59.966Z,101673.12
2018-08-04T18:45:24.366Z,101673.05
2018-08-04T18:48:49.150Z,101676.47
2018-08-04T18:52:13.584Z,101680.34
2018-08-04T18:55:38.275Z,101690.91
2018-08-04T18:59:02.735Z,101692.52
2018-08-04T19:02:27.357Z,101693.73
2018-08-04T19:05:51.796Z,101701.17
2018-08-04T19:09:16.359Z,101707.05
2018-08-04T19:12:43.123Z,101713.88
2018-08-04T19:16:08.051Z,101718.80
2018-08-04T19:19:32.917Z,101718.16
2018-08-04T19:22:57.554Z,101724.84
2018-08-04T19:26:21.971Z,101726.44
2018-08-04T19:29:46.412Z,101721.71
2018-08-04T19:33:10.835Z,101733.68
2018-08-04T19:36:35.469Z,101742.57
2018-08-04T19:39:59.921Z,101744.31
2018-08-04T19:43:24.425Z,101752.08
2018-08-04T19:46:49.054Z,101759.43
2018-08-04T19:50:13.483Z,101760.55
2018-08-04T19:53:37.903Z,101762.79
2018-08-04T19:57:02.384Z,101767.45
2018-08-04T20:00:26.782Z,101775.27
2018-08-04T20:03:51.285Z,101778.80
2018-08-04T20:07:15.713Z,101782.39
2018-08-04T20:10:40.292Z,101790.31
2018-08-04T20:14:04.738Z,101790.30
2018-08-04T20:17:29.154Z,101794.14
2018-08-04T20:20:56.799Z,101786.84
2018-08-04T20:24:21.253Z,101794.42
2018-08-04T20:27:46.521Z,101797.90
2018-08-04T20:31:10.953Z,101801.20
2018-08-04T20:34:35.471Z,101801.31
2018-08-04T20:37:59.896Z,101803.11
2018-08-04T20:41:24.351Z,101807.11
2018-08-04T20:44:48.733Z,101808.52
2018-08-04T20:48:13.192Z,101807.12
2018-08-04T20:51:37.620Z,101812.20
2018-08-04T20:55:02.100Z,101819.22
2018-08-04T20:58:26.650Z,101814.83
2018-08-04T21:02:05.759Z,101824.44
2018-08-04T21:05:30.228Z,101824.22
2018-08-04T21:08:54.736Z,101816.97
2018-08-04T21:12:19.190Z,101818.69
2018-08-04T21:15:43.599Z,101816.98
2018-08-04T21:19:08.058Z,101819.31
2018-08-04T21:22:33.115Z,101811.95
2018-08-04T21:25:57.532Z,101816.30
2018-08-04T21:29:22.546Z,101811.77
2018-08-04T21:32:46.983Z,101820.67
2018-08-04T21:36:11.403Z,101826.57
2018-08-04T21:39:35.822Z,101821.38
2018-08-04T21:43:00.256Z,101827.98
2018-08-04T21:46:24.668Z,101834.86
2018-08-04T21:49:49.165Z,101834.52
2018-08-04T21:53:13.582Z,101825.42
2018-08-04T21:56:38.000Z,101834.42
2018-08-04T22:00:02.409Z,101831.52
2018-08-04T22:03:26.852Z,101827.95
2018-08-04T22:08:07.708Z,101828.80
2018-08-04T22:11:32.112Z,101841.39
2018-08-04T22:14:56.531Z,101842.42
2018-08-04T22:18:21.060Z,101843.28
2018-08-04T22:21:45.545Z,101839.18
2018-08-04T22:25:12.607Z,101836.06
2018-08-04T22:28:37.231Z,101847.97
2018-08-04T22:32:01.965Z,101850.02
2018-08-04T22:35:26.849Z,101845.39
2018-08-04T22:38:51.341Z,101852.96
2018-08-04T22:42:16.100Z,101850.67
2018-08-04T22:46:18.001Z,101860.64
2018-08-04T22:49:42.462Z,101851.34
2018-08-04T22:53:07.471Z,101860.11
2018-08-04T22:56:31.897Z,101863.75
2018-08-04T22:59:57.076Z,101866.31
2018-08-04T23:03:21.759Z,101869.08
2018-08-04T23:06:46.229Z,101876.81
2018-08-04T23:10:10.850Z,101877.64
2018-08-04T23:13:35.300Z,101874.88
2018-08-04T23:16:59.853Z,101880.70
2018-08-04T23:20:24.310Z,101879.67
2018-08-04T23:23:48.755Z,101880.97
2018-08-04T23:27:13.355Z,101885.80
2018-08-04T23:30:37.779Z,101891.66
2018-08-04T23:34:02.211Z,101882.22
2018-08-04T23:37:26.641Z,101880.16
2018-08-04T23:40:51.104Z,101885.80
2018-08-04T23:44:15.567Z,101890.25
2018-08-04T23:47:39.960Z,101896.69
2018-08-04T23:51:04.386Z,101899.11
2018-08-04T23:54:28.832Z,101896.56
2018-08-04T23:57:53.255Z,101902.70
